NOAA Web Site Link Tides and Currents Home Page Transparent placeholder image

PORTS® Data Listing: 8539094 Burlington, Delaware River, NJ

CO-OPS RAW PORTS DATA

************************      PRELIMINARY DATA      ************************** 

     THIS RAW DATA HAS NOT BEEN SUBJECT TO THE NATIONAL OCEAN SERVICE'S        
     QUALITY CONTROL OR QUALITY ASSURANCE PROCEDURES AND DOES NOT MEET         
     THE CRITERIA AND STANDARDS OF OFFICIAL NATIONAL OCEAN SERVICE             
     DATA.  IT IS RELEASED FOR LIMITED PUBLIC USE AS PRELIMINARY DATA TO       
     BE USED ONLY WITH APPROPRIATE CAUTION.                                    

************************      PRELIMINARY DATA      ************************** 


       CD   -   Calendar date
       T    -   Time
       TZ   -   Timezone
       PW   -   Predicted water level (feet above MLLW)
       OW   -   Observed water level (feet above MLLW)
       WS   -   Wind speed (knots)
       WD   -   Wind direction (degrees true)
       WG   -   Wind gust (knots)
       AT   -   Air temperature (degrees farenheit)
       WT   -   Water temperature (degrees farenheit)
       AP   -   Air pressure (millibars)
       SA   -   Salinty (PSU - Practical Salinity Units)
       SG   -   Specific gravity
       RH   -   Relative humidity
       AG   -   Air gap (feet)
       VI   -   Visibility (nautical miles)

       ** NOTE **
       A variable that has its data fields filled with "9"s, indicates that
       data was not collected for that sample period.
       **********


STATION NAME: Burlington, Delaware River (8539094)
****************************************************************************************************
    CD       T    TZ    PW     OW    WS   WD   WG    AT    WT    AP    SA    SG     RH    AG   VI
****************************************************************************************************
2018/08/19 18:24 EDT    2.53   4.09    7   70    9  69.6  74.3 1016.2 -9.9 -9.999 -99.9 -99.99 -9.99
2018/08/19 18:30 EDT    2.72   4.26    6   61   11  69.1  74.3 1016.3 -9.9 -9.999 -99.9 -99.99 -9.99
2018/08/19 18:36 EDT    2.92   4.42    5   50    7  69.4  74.3 1016.3 -9.9 -9.999 -99.9 -99.99 -9.99
2018/08/19 18:42 EDT    3.11   4.59    4   48    6  69.1  74.3 1016.4 -9.9 -9.999 -99.9 -99.99 -9.99
2018/08/19 18:48 EDT    3.31   4.77    4   59    6  68.9  74.3 1016.3 -9.9 -9.999 -99.9 -99.99 -9.99
2018/08/19 18:54 EDT    3.51   4.96    5   74    7  68.9  74.3 1016.4 -9.9 -9.999 -99.9 -99.99 -9.99
2018/08/19 19:00 EDT    3.70   5.16    5   74    8  68.5  74.3 1016.4 -9.9 -9.999 -99.9 -99.99 -9.99
2018/08/19 19:06 EDT    3.90   5.39    5   78    9  68.9  74.3 1016.5 -9.9 -9.999 -99.9 -99.99 -9.99
2018/08/19 19:12 EDT    4.09   5.63    4   77    7  68.7  74.3 1016.5 -9.9 -9.999 -99.9 -99.99 -9.99
2018/08/19 19:18 EDT    4.28   5.89    4   71    7  68.9  74.3 1016.6 -9.9 -9.999 -99.9 -99.99 -9.99
2018/08/19 19:24 EDT    4.47   6.16    4   78    7  68.9  74.3 1016.6 -9.9 -9.999 -99.9 -99.99 -9.99
2018/08/19 19:30 EDT    4.66   6.42    5   76    8  69.3  74.3 1016.7 -9.9 -9.999 -99.9 -99.99 -9.99
2018/08/19 19:36 EDT    4.85   6.66    5   90    7  69.1  74.3 1016.8 -9.9 -9.999 -99.9 -99.99 -9.99
2018/08/19 19:42 EDT    5.03   6.88    4   78    7  69.1  74.3 1016.8 -9.9 -9.999 -99.9 -99.99 -9.99
2018/08/19 19:48 EDT    5.22   7.08    5   94    6  68.9  74.3 1016.8 -9.9 -9.999 -99.9 -99.99 -9.99
2018/08/19 19:54 EDT    5.40   7.26    4  102    6  69.1  74.1 1016.9 -9.9 -9.999 -99.9 -99.99 -9.99
2018/08/19 20:00 EDT    5.58   7.43    3  112    4  68.9  74.1 1016.9 -9.9 -9.999 -99.9 -99.99 -9.99
2018/08/19 20:06 EDT    5.75   7.59    3  126    4  68.7  74.1 1016.9 -9.9 -9.999 -99.9 -99.99 -9.99
2018/08/19 20:12 EDT    5.93   7.75    2  140    4  68.7  74.1 1017.0 -9.9 -9.999 -99.9 -99.99 -9.99
2018/08/19 20:18 EDT    6.10   7.89    2  130    3  68.5  74.1 1017.1 -9.9 -9.999 -99.9 -99.99 -9.99
2018/08/19 20:24 EDT    6.26   8.03    3  125    3  68.7  74.1 1017.2 -9.9 -9.999 -99.9 -99.99 -9.99
2018/08/19 20:30 EDT    6.42   8.15    2  100    3  68.9  74.1 1017.2 -9.9 -9.999 -99.9 -99.99 -9.99
2018/08/19 20:36 EDT    6.58   8.28    2   96    3  68.9  74.1 1017.3 -9.9 -9.999 -99.9 -99.99 -9.99
2018/08/19 20:42 EDT    6.73   8.40    2   74    3  69.1  74.1 1017.4 -9.9 -9.999 -99.9 -99.99 -9.99
2018/08/19 20:48 EDT    6.87   8.51    2   80    3  69.1  74.1 1017.4 -9.9 -9.999 -99.9 -99.99 -9.99
2018/08/19 20:54 EDT    7.00   8.61    4   71    4  69.1  74.1 1017.4 -9.9 -9.999 -99.9 -99.99 -9.99
2018/08/19 21:00 EDT    7.13   8.70    4   70    5  69.3  74.1 1017.4 -9.9 -9.999 -99.9 -99.99 -9.99
2018/08/19 21:06 EDT    7.25   8.79    3   77    4  69.4  74.1 1017.4 -9.9 -9.999 -99.9 -99.99 -9.99
2018/08/19 21:12 EDT    7.36   8.87    3   72    5  69.4  74.1 1017.4 -9.9 -9.999 -99.9 -99.99 -9.99
2018/08/19 21:18 EDT    7.45   8.94    3   62    4  69.6  74.1 1017.5 -9.9 -9.999 -99.9 -99.99 -9.99
2018/08/19 21:24 EDT    7.54   9.01    2   66    4  69.6  74.1 1017.6 -9.9 -9.999 -99.9 -99.99 -9.99
2018/08/19 21:30 EDT    7.62   9.07    4   64    5  69.6  73.9 1017.6 -9.9 -9.999 -99.9 -99.99 -9.99
2018/08/19 21:36 EDT    7.68   9.12    4   64    6  69.6  73.9 1017.7 -9.9 -9.999 -99.9 -99.99 -9.99
2018/08/19 21:42 EDT    7.73   9.17    3   72    4  69.8  73.9 1017.7 -9.9 -9.999 -99.9 -99.99 -9.99
2018/08/19 21:48 EDT    7.78   9.21    4   65    4  69.6  73.9 1017.8 -9.9 -9.999 -99.9 -99.99 -9.99
2018/08/19 21:54 EDT    7.81   9.23    4   74    6  69.6  73.9 1017.9 -9.9 -9.999 -99.9 -99.99 -9.99
2018/08/19 22:00 EDT    7.82   9.25    5   77    6  69.6  73.9 1017.9 -9.9 -9.999 -99.9 -99.99 -9.99
2018/08/19 22:06 EDT    7.83   9.25    4   79    6  69.6  73.9 1017.9 -9.9 -9.999 -99.9 -99.99 -9.99
2018/08/19 22:12 EDT    7.82   9.24    4   75    5  69.6  73.9 1017.9 -9.9 -9.999 -99.9 -99.99 -9.99
2018/08/19 22:18 EDT    7.81   9.23    4   72    4  69.6  73.9 1018.0 -9.9 -9.999 -99.9 -99.99 -9.99
2018/08/19 22:24 EDT    7.78   9.19    4   66    5  69.6  73.9 1018.0 -9.9 -9.999 -99.9 -99.99 -9.99
2018/08/19 22:30 EDT    7.74   9.15    4   64    5  69.8  73.9 1018.0 -9.9 -9.999 -99.9 -99.99 -9.99
2018/08/19 22:36 EDT    7.70   9.10    3   65    4  69.6  73.9 1018.1 -9.9 -9.999 -99.9 -99.99 -9.99
2018/08/19 22:42 EDT    7.64   9.04    4   72    5  69.8  73.9 1018.0 -9.9 -9.999 -99.9 -99.99 -9.99
2018/08/19 22:48 EDT    7.58   8.97    3   65    4  69.6  73.9 1018.0 -9.9 -9.999 -99.9 -99.99 -9.99
2018/08/19 22:54 EDT    7.51   8.89    3   68    5  69.6  73.9 1018.1 -9.9 -9.999 -99.9 -99.99 -9.99
2018/08/19 23:00 EDT    7.43   8.82    4   72    5  69.6  73.9 1018.2 -9.9 -9.999 -99.9 -99.99 -9.99
2018/08/19 23:06 EDT    7.35   8.73    3   63    4  69.6  73.9 1018.2 -9.9 -9.999 -99.9 -99.99 -9.99
2018/08/19 23:12 EDT    7.26   8.63    3   77    4  69.6  73.9 1018.2 -9.9 -9.999 -99.9 -99.99 -9.99
2018/08/19 23:18 EDT    7.16   8.53    2   80    5  69.6  73.9 1018.3 -9.9 -9.999 -99.9 -99.99 -9.99
2018/08/19 23:24 EDT    7.06   8.43    3   93    4  69.4  73.9 1018.3 -9.9 -9.999 -99.9 -99.99 -9.99
2018/08/19 23:30 EDT    6.96   8.33    3  106    5  69.6  73.9 1018.4 -9.9 -9.999 -99.9 -99.99 -9.99
2018/08/19 23:36 EDT    6.85   8.22    3  114    4  69.4  73.9 1018.4 -9.9 -9.999 -99.9 -99.99 -9.99
2018/08/19 23:42 EDT    6.74   8.11    3  129    4  69.6  73.9 1018.4 -9.9 -9.999 -99.9 -99.99 -9.99
2018/08/19 23:48 EDT    6.62   8.00    3  112    4  69.4  73.9 1018.4 -9.9 -9.999 -99.9 -99.99 -9.99
2018/08/19 23:54 EDT    6.51   7.88    3   89    4  69.4  73.9 1018.4 -9.9 -9.999 -99.9 -99.99 -9.99
2018/08/20 00:00 EDT    6.38   7.77    3   76    5  69.4  73.9 1018.3 -9.9 -9.999 -99.9 -99.99 -9.99
2018/08/20 00:06 EDT    6.26   7.65    4   87    5  69.4  73.9 1018.3 -9.9 -9.999 -99.9 -99.99 -9.99
2018/08/20 00:12 EDT    6.13   7.54    5   89    7  69.4  73.9 1018.4 -9.9 -9.999 -99.9 -99.99 -9.99
2018/08/20 00:18 EDT    6.00   7.42    5   89    8  69.4  73.9 1018.3 -9.9 -9.999 -99.9 -99.99 -9.99
2018/08/20 00:24 EDT    5.87   7.29    5   81    7  69.4  74.1 1018.3 -9.9 -9.999 -99.9 -99.99 -9.99
2018/08/20 00:30 EDT    5.74   7.17    6   86    7  69.4  74.1 1018.3 -9.9 -9.999 -99.9 -99.99 -9.99
2018/08/20 00:36 EDT    5.60   7.05    5   88    6  69.4  74.1 1018.4 -9.9 -9.999 -99.9 -99.99 -9.99
2018/08/20 00:42 EDT    5.47   6.93    4   85    6  69.4  74.1 1018.3 -9.9 -9.999 -99.9 -99.99 -9.99
2018/08/20 00:48 EDT    5.33   6.80    4   82    6  69.3  74.1 1018.4 -9.9 -9.999 -99.9 -99.99 -9.99
2018/08/20 00:54 EDT    5.20   6.69    4   91    6  69.4  74.1 1018.4 -9.9 -9.999 -99.9 -99.99 -9.99
2018/08/20 01:00 EDT    5.06   6.57    4   91    8  69.3  74.1 1018.3 -9.9 -9.999 -99.9 -99.99 -9.99
2018/08/20 01:06 EDT    4.92   6.44    5   96    6  69.3  74.1 1018.4 -9.9 -9.999 -99.9 -99.99 -9.99
2018/08/20 01:12 EDT    4.78   6.32    4   81    6  69.3  74.1 1018.4 -9.9 -9.999 -99.9 -99.99 -9.99
2018/08/20 01:18 EDT    4.65   6.21    4   70    6  69.4  74.1 1018.3 -9.9 -9.999 -99.9 -99.99 -9.99
2018/08/20 01:24 EDT    4.51   6.09    4   64    6  69.4  74.1 1018.2 -9.9 -9.999 -99.9 -99.99 -9.99
2018/08/20 01:30 EDT    4.38   5.97    4   62    6  69.4  74.1 1018.2 -9.9 -9.999 -99.9 -99.99 -9.99
2018/08/20 01:36 EDT    4.25   5.86    5   65    6  69.4  74.1 1018.1 -9.9 -9.999 -99.9 -99.99 -9.99
2018/08/20 01:42 EDT    4.12   5.75    5   66    6  69.4  74.1 1018.2 -9.9 -9.999 -99.9 -99.99 -9.99
2018/08/20 01:48 EDT    3.99   5.63    5   70    7  69.4  74.1 1018.2 -9.9 -9.999 -99.9 -99.99 -9.99
2018/08/20 01:54 EDT    3.86   5.52    4   69    6  69.3  74.1 1018.2 -9.9 -9.999 -99.9 -99.99 -9.99
2018/08/20 02:00 EDT    3.74   5.41    3   64    5  69.4  74.1 1018.2 -9.9 -9.999 -99.9 -99.99 -9.99
2018/08/20 02:06 EDT    3.62   5.30    3   61    5  69.3  74.1 1018.3 -9.9 -9.999 -99.9 -99.99 -9.99
2018/08/20 02:12 EDT    3.50   5.19    4   65    6  69.4  74.1 1018.3 -9.9 -9.999 -99.9 -99.99 -9.99
2018/08/20 02:18 EDT    3.38   5.08    4   67    6  69.1  74.1 1018.2 -9.9 -9.999 -99.9 -99.99 -9.99
2018/08/20 02:24 EDT    3.27   4.96    4   64    6  69.3  74.1 1018.1 -9.9 -9.999 -99.9 -99.99 -9.99
2018/08/20 02:30 EDT    3.15   4.85    4   70    6  69.3  74.1 1018.1 -9.9 -9.999 -99.9 -99.99 -9.99
2018/08/20 02:36 EDT    3.04   4.74    4   70    6  69.3  74.1 1018.0 -9.9 -9.999 -99.9 -99.99 -9.99
2018/08/20 02:42 EDT    2.93   4.63    4   70    6  69.3  74.1 1018.0 -9.9 -9.999 -99.9 -99.99 -9.99
2018/08/20 02:48 EDT    2.81   4.52    4   63    6  69.4  74.1 1017.9 -9.9 -9.999 -99.9 -99.99 -9.99
2018/08/20 02:54 EDT    2.70   4.41    3   57    4  69.3  74.1 1018.0 -9.9 -9.999 -99.9 -99.99 -9.99
2018/08/20 03:00 EDT    2.59   4.30    3   53    4  69.3  74.1 1018.0 -9.9 -9.999 -99.9 -99.99 -9.99
2018/08/20 03:06 EDT    2.48   4.20    3   60    4  69.3  74.1 1018.0 -9.9 -9.999 -99.9 -99.99 -9.99
2018/08/20 03:12 EDT    2.36   4.09    3   76    4  69.1  74.1 1018.0 -9.9 -9.999 -99.9 -99.99 -9.99
2018/08/20 03:18 EDT    2.25   3.98    4   68    6  69.4  74.1 1018.0 -9.9 -9.999 -99.9 -99.99 -9.99
2018/08/20 03:24 EDT    2.13   3.88    4   71    6  69.3  74.1 1018.0 -9.9 -9.999 -99.9 -99.99 -9.99
2018/08/20 03:30 EDT    2.02   3.77    4   73    7  69.4  74.1 1018.0 -9.9 -9.999 -99.9 -99.99 -9.99
2018/08/20 03:36 EDT    1.90   3.67    4   63    6  69.3  74.1 1018.1 -9.9 -9.999 -99.9 -99.99 -9.99
2018/08/20 03:42 EDT    1.78   3.57    5   67    9  69.4  74.1 1018.1 -9.9 -9.999 -99.9 -99.99 -9.99
2018/08/20 03:48 EDT    1.67   3.47    6   79    8  69.3  74.1 1018.1 -9.9 -9.999 -99.9 -99.99 -9.99
2018/08/20 03:54 EDT    1.56   3.37    6   75    8  69.4  74.1 1018.2 -9.9 -9.999 -99.9 -99.99 -9.99
2018/08/20 04:00 EDT    1.44   3.27    6   69    7  69.3  74.1 1018.3 -9.9 -9.999 -99.9 -99.99 -9.99
2018/08/20 04:06 EDT    1.33   3.18    5   75    8  69.3  73.9 1018.4 -9.9 -9.999 -99.9 -99.99 -9.99
2018/08/20 04:12 EDT    1.23   3.08    4   65    6  69.4  73.9 1018.5 -9.9 -9.999 -99.9 -99.99 -9.99
2018/08/20 04:18 EDT    1.13   2.99    4   54    6  69.3  73.9 1018.5 -9.9 -9.999 -99.9 -99.99 -9.99
2018/08/20 04:24 EDT    1.04   2.90    4   64    7  69.3  73.9 1018.6 -9.9 -9.999 -99.9 -99.99 -9.99
2018/08/20 04:30 EDT    0.95   2.81    5   75    6  69.3  73.9 1018.7 -9.9 -9.999 -99.9 -99.99 -9.99
2018/08/20 04:36 EDT    0.87   2.71    5   76    6  69.1  73.9 1018.7 -9.9 -9.999 -99.9 -99.99 -9.99
2018/08/20 04:42 EDT    0.80   2.63    4   78    6  69.1  73.9 1018.7 -9.9 -9.999 -99.9 -99.99 -9.99
2018/08/20 04:48 EDT    0.74   2.54    4   72    7  69.3  73.9 1018.8 -9.9 -9.999 -99.9 -99.99 -9.99
2018/08/20 04:54 EDT    0.69   2.45    4   68    5  69.3  73.9 1018.9 -9.9 -9.999 -99.9 -99.99 -9.99
2018/08/20 05:00 EDT    0.65   2.38    4   73    6  69.1  73.9 1018.9 -9.9 -9.999 -99.9 -99.99 -9.99
2018/08/20 05:06 EDT    0.63   2.32    3   74    5  69.3  73.9 1019.0 -9.9 -9.999 -99.9 -99.99 -9.99
2018/08/20 05:12 EDT    0.62   2.25    2   46    4  69.3  73.9 1019.0 -9.9 -9.999 -99.9 -99.99 -9.99
2018/08/20 05:18 EDT    0.62   2.19    3   44    5  69.1  73.9 1019.1 -9.9 -9.999 -99.9 -99.99 -9.99
2018/08/20 05:24 EDT    0.64   2.13    4   72    5  69.1  73.8 1019.1 -9.9 -9.999 -99.9 -99.99 -9.99
2018/08/20 05:30 EDT    0.67   2.10    3   67    5  69.3  73.8 1019.0 -9.9 -9.999 -99.9 -99.99 -9.99
2018/08/20 05:36 EDT    0.71   2.08    3   60    4  69.1  73.8 1019.0 -9.9 -9.999 -99.9 -99.99 -9.99
2018/08/20 05:42 EDT    0.76   2.07    3   67    4  69.1  73.8 1019.1 -9.9 -9.999 -99.9 -99.99 -9.99
2018/08/20 05:48 EDT    0.83   2.10    2   67    3  69.1  73.8 1019.1 -9.9 -9.999 -99.9 -99.99 -9.99
2018/08/20 05:54 EDT    0.91   2.17    2   49    4  69.1  73.8 1019.1 -9.9 -9.999 -99.9 -99.99 -9.99
2018/08/20 06:00 EDT    1.00   2.28    1   47    3  69.1  73.8 1019.1 -9.9 -9.999 -99.9 -99.99 -9.99
2018/08/20 06:06 EDT    1.10   2.45    1   50    2  68.9  73.8 1019.1 -9.9 -9.999 -99.9 -99.99 -9.99
2018/08/20 06:12 EDT    1.22   2.67    2   45    3  68.9  73.8 1019.1 -9.9 -9.999 -99.9 -99.99 -9.99
2018/08/20 06:18 EDT    1.34   2.90    2   45    3  68.7  73.8 1019.1 -9.9 -9.999 -99.9 -99.99 -9.99
2018/08/20 06:24 EDT    1.47   3.13    2   42    3  68.7  73.8 1019.1 -9.9 -9.999 -99.9 -99.99 -9.99
2018/08/20 06:30 EDT    1.60   3.34    1   19    3  68.7  73.6 1019.3 -9.9 -9.999 -99.9 -99.99 -9.99
2018/08/20 06:36 EDT    1.74   3.52    1    5    2  68.7  73.6 1019.4 -9.9 -9.999 -99.9 -99.99 -9.99
2018/08/20 06:42 EDT    1.89   3.70    1   36    3  68.7  73.6 1019.4 -9.9 -9.999 -99.9 -99.99 -9.99
2018/08/20 06:48 EDT    2.04   3.88    2   45    4  68.7  73.6 1019.4 -9.9 -9.999 -99.9 -99.99 -9.99
2018/08/20 06:54 EDT    2.20   4.04    2   49    4  68.7  73.6 1019.3 -9.9 -9.999 -99.9 -99.99 -9.99
2018/08/20 07:00 EDT    2.35   4.20    1   42    3  68.7  73.6 1019.3 -9.9 -9.999 -99.9 -99.99 -9.99
2018/08/20 07:06 EDT    2.52   4.36    2   47    3  68.7  73.6 1019.4 -9.9 -9.999 -99.9 -99.99 -9.99
2018/08/20 07:12 EDT    2.68   4.51    2   59    4  68.9  73.6 1019.3 -9.9 -9.999 -99.9 -99.99 -9.99
2018/08/20 07:18 EDT    2.84   4.66    3   53    4  68.7  73.6 1019.3 -9.9 -9.999 -99.9 -99.99 -9.99
2018/08/20 07:24 EDT    3.01   4.80    4   43    5  68.9  73.6 1019.5 -9.9 -9.999 -99.9 -99.99 -9.99
2018/08/20 07:30 EDT    3.17   4.95    3   52    4  68.7  73.6 1019.4 -9.9 -9.999 -99.9 -99.99 -9.99
2018/08/20 07:36 EDT    3.34   5.10    4   62    6  68.9  73.6 1019.5 -9.9 -9.999 -99.9 -99.99 -9.99
2018/08/20 07:42 EDT    3.51   5.25    4   57    6  68.9  73.6 1019.5 -9.9 -9.999 -99.9 -99.99 -9.99
2018/08/20 07:48 EDT    3.68   5.43    5   51    7  69.1  73.6 1019.5 -9.9 -9.999 -99.9 -99.99 -9.99
2018/08/20 07:54 EDT    3.85   5.64    6   53    9  69.1  73.8 1019.3 -9.9 -9.999 -99.9 -99.99 -9.99
2018/08/20 08:00 EDT    4.02   5.85    5   67    7  69.3  73.8 1019.3 -9.9 -9.999 -99.9 -99.99 -9.99
2018/08/20 08:06 EDT    4.19   6.07    4   54    6  69.4  73.8 1019.4 -9.9 -9.999 -99.9 -99.99 -9.99
2018/08/20 08:12 EDT    4.36   6.30    5   51    8  69.4  73.8 1019.2 -9.9 -9.999 -99.9 -99.99 -9.99
2018/08/20 08:18 EDT    4.54   6.51    7   57   11  69.6  73.8 1019.3 -9.9 -9.999 -99.9 -99.99 -9.99
2018/08/20 08:24 EDT    4.71   6.71    6   54    8  69.8  73.8 1019.3 -9.9 -9.999 -99.9 -99.99 -9.99
2018/08/20 08:30 EDT    4.88   6.90    4   52    9  69.8  73.8 1019.5 -9.9 -9.999 -99.9 -99.99 -9.99
2018/08/20 08:36 EDT    5.05   7.06    4   54    6  69.3  73.8 1019.4 -9.9 -9.999 -99.9 -99.99 -9.99
2018/08/20 08:42 EDT    5.22   7.20    5   50    8  69.6  73.8 1019.3 -9.9 -9.999 -99.9 -99.99 -9.99
2018/08/20 08:48 EDT    5.38   7.34    7   62   10  69.8  73.8 1019.5 -9.9 -9.999 -99.9 -99.99 -9.99
2018/08/20 08:54 EDT    5.55   7.47    6   71   10  69.3  73.8 1019.6 -9.9 -9.999 -99.9 -99.99 -9.99
2018/08/20 09:00 EDT    5.71   7.58    6   76    9  69.1  73.8 1019.7 -9.9 -9.999 -99.9 -99.99 -9.99
2018/08/20 09:06 EDT    5.86   7.69    5   59    8  69.4  73.8 1019.9 -9.9 -9.999 -99.9 -99.99 -9.99
2018/08/20 09:12 EDT    6.02   7.79    4   69    6  69.1  73.8 1019.9 -9.9 -9.999 -99.9 -99.99 -9.99
2018/08/20 09:18 EDT    6.16   7.88    5   57    8  70.0  73.8 1019.9 -9.9 -9.999 -99.9 -99.99 -9.99
2018/08/20 09:24 EDT    6.30   7.97    5   68    6  70.2  73.8 1019.9 -9.9 -9.999 -99.9 -99.99 -9.99
2018/08/20 09:30 EDT    6.43   8.05    5   76    8  70.5  73.8 1019.8 -9.9 -9.999 -99.9 -99.99 -9.99
2018/08/20 09:36 EDT    6.55   8.12    6   82   10  70.3  73.8 1019.7 -9.9 -9.999 -99.9 -99.99 -9.99
2018/08/20 09:42 EDT    6.67   8.20    8   83   11  70.0  73.8 1019.7 -9.9 -9.999 -99.9 -99.99 -9.99
2018/08/20 09:48 EDT    6.77   8.26    7   71   10  70.2  73.8 1019.8 -9.9 -9.999 -99.9 -99.99 -9.99
2018/08/20 09:54 EDT    6.86   8.31    7   54   10  71.1  73.8 1019.6 -9.9 -9.999 -99.9 -99.99 -9.99
2018/08/20 10:00 EDT    6.95   8.35    7   81   11  70.5  73.8 1019.6 -9.9 -9.999 -99.9 -99.99 -9.99
2018/08/20 10:06 EDT    7.02   8.38    8   79   11  70.5  73.8 1019.6 -9.9 -9.999 -99.9 -99.99 -9.99
2018/08/20 10:12 EDT    7.08   8.40    8   77   11  70.9  73.8 1019.7 -9.9 -9.999 -99.9 -99.99 -9.99
2018/08/20 10:18 EDT    7.12   8.41    8   76   11  71.8  73.8 1019.7 -9.9 -9.999 -99.9 -99.99 -9.99
2018/08/20 10:24 EDT    7.16   8.41    7   76   10  71.4  73.8 1019.8 -9.9 -9.999 -99.9 -99.99 -9.99
2018/08/20 10:30 EDT    7.18   8.40    7   53   10  71.4  73.8 1019.6 -9.9 -9.999 -99.9 -99.99 -9.99
2018/08/20 10:36 EDT    7.19   8.37    8   63   12  72.1  73.8 1019.5 -9.9 -9.999 -99.9 -99.99 -9.99
2018/08/20 10:42 EDT    7.19   8.33    8   54   11  72.5  73.8 1019.4 -9.9 -9.999 -99.9 -99.99 -9.99
2018/08/20 10:48 EDT    7.18   8.29    7   87   11  71.6  73.8 1019.5 -9.9 -9.999 -99.9 -99.99 -9.99
2018/08/20 10:54 EDT    7.16   8.25    7   89   11  71.6  73.8 1019.8 -9.9 -9.999 -99.9 -99.99 -9.99
2018/08/20 11:00 EDT    7.13   8.17    7   75   11  71.8  73.8 1019.9 -9.9 -9.999 -99.9 -99.99 -9.99
2018/08/20 11:06 EDT    7.09   8.09    6   72    8  72.0  73.8 1019.8 -9.9 -9.999 -99.9 -99.99 -9.99
2018/08/20 11:12 EDT    7.03   8.01    6   84    9  72.0  73.8 1020.0 -9.9 -9.999 -99.9 -99.99 -9.99
2018/08/20 11:18 EDT    6.97   7.94    6   78    9  72.5  73.8 1019.9 -9.9 -9.999 -99.9 -99.99 -9.99
2018/08/20 11:24 EDT    6.90   7.85    6   70    9  73.2  73.8 1019.8 -9.9 -9.999 -99.9 -99.99 -9.99
2018/08/20 11:30 EDT    6.83   7.76    6   89    8  72.7  73.8 1019.8 -9.9 -9.999 -99.9 -99.99 -9.99
2018/08/20 11:36 EDT    6.74   7.65    5   79    8  72.9  73.8 1019.9 -9.9 -9.999 -99.9 -99.99 -9.99
2018/08/20 11:42 EDT    6.65   7.55    6   70    9  73.2  73.8 1019.7 -9.9 -9.999 -99.9 -99.99 -9.99
2018/08/20 11:48 EDT    6.55   7.45    6   81    9  73.4  73.8 1019.7 -9.9 -9.999 -99.9 -99.99 -9.99
2018/08/20 11:54 EDT    6.45   7.35    6   91    9  73.4  73.8 1019.8 -9.9 -9.999 -99.9 -99.99 -9.99
2018/08/20 12:00 EDT    6.34   7.24    5   82    7  73.8  73.8 1019.9 -9.9 -9.999 -99.9 -99.99 -9.99
2018/08/20 12:06 EDT    6.22   7.13    6   95    9  73.2  73.8 1020.0 -9.9 -9.999 -99.9 -99.99 -9.99
2018/08/20 12:12 EDT    6.10   7.02 -999 -999 -999  73.4  73.8 1020.0 -9.9 -9.999 -99.9 -99.99 -9.99
2018/08/20 12:18 EDT    5.98   6.91 -999 -999 -999  73.8  73.8 1020.0 -9.9 -9.999 -99.9 -99.99 -9.99
2018/08/20 12:24 EDT    5.85 -99.99 -999 -999 -999 -99.9 -99.9 -999.9 -9.9 -9.999 -99.9 -99.99 -9.99
2018/08/20 12:30 EDT    5.72 -99.99 -999 -999 -999 -99.9 -99.9 -999.9 -9.9 -9.999 -99.9 -99.99 -9.99
2018/08/20 12:36 EDT    5.58 -99.99 -999 -999 -999 -99.9 -99.9 -999.9 -9.9 -9.999 -99.9 -99.99 -9.99
2018/08/20 12:42 EDT    5.44 -99.99 -999 -999 -999 -99.9 -99.9 -999.9 -9.9 -9.999 -99.9 -99.99 -9.99
2018/08/20 12:48 EDT    5.30 -99.99 -999 -999 -999 -99.9 -99.9 -999.9 -9.9 -9.999 -99.9 -99.99 -9.99
2018/08/20 12:54 EDT    5.15 -99.99 -999 -999 -999 -99.9 -99.9 -999.9 -9.9 -9.999 -99.9 -99.99 -9.99
2018/08/20 13:00 EDT    5.00 -99.99 -999 -999 -999 -99.9 -99.9 -999.9 -9.9 -9.999 -99.9 -99.99 -9.99
2018/08/20 13:06 EDT    4.85 -99.99 -999 -999 -999 -99.9 -99.9 -999.9 -9.9 -9.999 -99.9 -99.99 -9.99
2018/08/20 13:12 EDT    4.70 -99.99 -999 -999 -999 -99.9 -99.9 -999.9 -9.9 -9.999 -99.9 -99.99 -9.99
2018/08/20 13:18 EDT    4.55 -99.99 -999 -999 -999 -99.9 -99.9 -999.9 -9.9 -9.999 -99.9 -99.99 -9.99
2018/08/20 13:24 EDT    4.39 -99.99 -999 -999 -999 -99.9 -99.9 -999.9 -9.9 -9.999 -99.9 -99.99 -9.99
2018/08/20 13:30 EDT    4.24 -99.99 -999 -999 -999 -99.9 -99.9 -999.9 -9.9 -9.999 -99.9 -99.99 -9.99
2018/08/20 13:36 EDT    4.08 -99.99 -999 -999 -999 -99.9 -99.9 -999.9 -9.9 -9.999 -99.9 -99.99 -9.99
2018/08/20 13:42 EDT    3.93 -99.99 -999 -999 -999 -99.9 -99.9 -999.9 -9.9 -9.999 -99.9 -99.99 -9.99
2018/08/20 13:48 EDT    3.78 -99.99 -999 -999 -999 -99.9 -99.9 -999.9 -9.9 -9.999 -99.9 -99.99 -9.99
2018/08/20 13:54 EDT    3.63 -99.99 -999 -999 -999 -99.9 -99.9 -999.9 -9.9 -9.999 -99.9 -99.99 -9.99
2018/08/20 14:00 EDT    3.49 -99.99 -999 -999 -999 -99.9 -99.9 -999.9 -9.9 -9.999 -99.9 -99.99 -9.99
2018/08/20 14:06 EDT    3.34 -99.99 -999 -999 -999 -99.9 -99.9 -999.9 -9.9 -9.999 -99.9 -99.99 -9.99
2018/08/20 14:12 EDT    3.20 -99.99 -999 -999 -999 -99.9 -99.9 -999.9 -9.9 -9.999 -99.9 -99.99 -9.99
2018/08/20 14:18 EDT    3.07 -99.99 -999 -999 -999 -99.9 -99.9 -999.9 -9.9 -9.999 -99.9 -99.99 -9.99
2018/08/20 14:24 EDT    2.93 -99.99 -999 -999 -999 -99.9 -99.9 -999.9 -9.9 -9.999 -99.9 -99.99 -9.99
2018/08/20 14:30 EDT    2.80 -99.99 -999 -999 -999 -99.9 -99.9 -999.9 -9.9 -9.999 -99.9 -99.99 -9.99
2018/08/20 14:36 EDT    2.68 -99.99 -999 -999 -999 -99.9 -99.9 -999.9 -9.9 -9.999 -99.9 -99.99 -9.99
2018/08/20 14:42 EDT    2.55 -99.99 -999 -999 -999 -99.9 -99.9 -999.9 -9.9 -9.999 -99.9 -99.99 -9.99
2018/08/20 14:48 EDT    2.43 -99.99 -999 -999 -999 -99.9 -99.9 -999.9 -9.9 -9.999 -99.9 -99.99 -9.99
2018/08/20 14:54 EDT    2.32 -99.99 -999 -999 -999 -99.9 -99.9 -999.9 -9.9 -9.999 -99.9 -99.99 -9.99
2018/08/20 15:00 EDT    2.20 -99.99 -999 -999 -999 -99.9 -99.9 -999.9 -9.9 -9.999 -99.9 -99.99 -9.99
2018/08/20 15:06 EDT    2.09 -99.99 -999 -999 -999 -99.9 -99.9 -999.9 -9.9 -9.999 -99.9 -99.99 -9.99
2018/08/20 15:12 EDT    1.98 -99.99 -999 -999 -999 -99.9 -99.9 -999.9 -9.9 -9.999 -99.9 -99.99 -9.99
2018/08/20 15:18 EDT    1.88 -99.99 -999 -999 -999 -99.9 -99.9 -999.9 -9.9 -9.999 -99.9 -99.99 -9.99
2018/08/20 15:24 EDT    1.77 -99.99 -999 -999 -999 -99.9 -99.9 -999.9 -9.9 -9.999 -99.9 -99.99 -9.99
2018/08/20 15:30 EDT    1.67 -99.99 -999 -999 -999 -99.9 -99.9 -999.9 -9.9 -9.999 -99.9 -99.99 -9.99
2018/08/20 15:36 EDT    1.57 -99.99 -999 -999 -999 -99.9 -99.9 -999.9 -9.9 -9.999 -99.9 -99.99 -9.99
2018/08/20 15:42 EDT    1.47 -99.99 -999 -999 -999 -99.9 -99.9 -999.9 -9.9 -9.999 -99.9 -99.99 -9.99
2018/08/20 15:48 EDT    1.37 -99.99 -999 -999 -999 -99.9 -99.9 -999.9 -9.9 -9.999 -99.9 -99.99 -9.99
2018/08/20 15:54 EDT    1.27 -99.99 -999 -999 -999 -99.9 -99.9 -999.9 -9.9 -9.999 -99.9 -99.99 -9.99
2018/08/20 16:00 EDT    1.18 -99.99 -999 -999 -999 -99.9 -99.9 -999.9 -9.9 -9.999 -99.9 -99.99 -9.99
2018/08/20 16:06 EDT    1.08 -99.99 -999 -999 -999 -99.9 -99.9 -999.9 -9.9 -9.999 -99.9 -99.99 -9.99
2018/08/20 16:12 EDT    0.99 -99.99 -999 -999 -999 -99.9 -99.9 -999.9 -9.9 -9.999 -99.9 -99.99 -9.99
2018/08/20 16:18 EDT    0.90 -99.99 -999 -999 -999 -99.9 -99.9 -999.9 -9.9 -9.999 -99.9 -99.99 -9.99
2018/08/20 16:24 EDT    0.82 -99.99 -999 -999 -999 -99.9 -99.9 -999.9 -9.9 -9.999 -99.9 -99.99 -9.99
2018/08/20 16:30 EDT    0.74 -99.99 -999 -999 -999 -99.9 -99.9 -999.9 -9.9 -9.999 -99.9 -99.99 -9.99
2018/08/20 16:36 EDT    0.67 -99.99 -999 -999 -999 -99.9 -99.9 -999.9 -9.9 -9.999 -99.9 -99.99 -9.99
2018/08/20 16:42 EDT    0.60 -99.99 -999 -999 -999 -99.9 -99.9 -999.9 -9.9 -9.999 -99.9 -99.99 -9.99
2018/08/20 16:48 EDT    0.54 -99.99 -999 -999 -999 -99.9 -99.9 -999.9 -9.9 -9.999 -99.9 -99.99 -9.99
2018/08/20 16:54 EDT    0.48 -99.99 -999 -999 -999 -99.9 -99.9 -999.9 -9.9 -9.999 -99.9 -99.99 -9.99
2018/08/20 17:00 EDT    0.44 -99.99 -999 -999 -999 -99.9 -99.9 -999.9 -9.9 -9.999 -99.9 -99.99 -9.99
2018/08/20 17:06 EDT    0.41 -99.99 -999 -999 -999 -99.9 -99.9 -999.9 -9.9 -9.999 -99.9 -99.99 -9.99
2018/08/20 17:12 EDT    0.39 -99.99 -999 -999 -999 -99.9 -99.9 -999.9 -9.9 -9.999 -99.9 -99.99 -9.99
2018/08/20 17:18 EDT    0.37 -99.99 -999 -999 -999 -99.9 -99.9 -999.9 -9.9 -9.999 -99.9 -99.99 -9.99
2018/08/20 17:24 EDT    0.38 -99.99 -999 -999 -999 -99.9 -99.9 -999.9 -9.9 -9.999 -99.9 -99.99 -9.99
2018/08/20 17:30 EDT    0.39 -99.99 -999 -999 -999 -99.9 -99.9 -999.9 -9.9 -9.999 -99.9 -99.99 -9.99
2018/08/20 17:36 EDT    0.42 -99.99 -999 -999 -999 -99.9 -99.9 -999.9 -9.9 -9.999 -99.9 -99.99 -9.99
2018/08/20 17:42 EDT    0.46 -99.99 -999 -999 -999 -99.9 -99.9 -999.9 -9.9 -9.999 -99.9 -99.99 -9.99
2018/08/20 17:48 EDT    0.51 -99.99 -999 -999 -999 -99.9 -99.9 -999.9 -9.9 -9.999 -99.9 -99.99 -9.99
2018/08/20 17:54 EDT    0.58 -99.99 -999 -999 -999 -99.9 -99.9 -999.9 -9.9 -9.999 -99.9 -99.99 -9.99
2018/08/20 18:00 EDT    0.66 -99.99 -999 -999 -999 -99.9 -99.9 -999.9 -9.9 -9.999 -99.9 -99.99 -9.99
2018/08/20 18:06 EDT    0.76 -99.99 -999 -999 -999 -99.9 -99.9 -999.9 -9.9 -9.999 -99.9 -99.99 -9.99
2018/08/20 18:12 EDT    0.87 -99.99 -999 -999 -999 -99.9 -99.9 -999.9 -9.9 -9.999 -99.9 -99.99 -9.99
2018/08/20 18:18 EDT    0.99 -99.99 -999 -999 -999 -99.9 -99.9 -999.9 -9.9 -9.999 -99.9 -99.99 -9.99
2018/08/20 18:24 EDT    1.11 -99.99 -999 -999 -999 -99.9 -99.9 -999.9 -9.9 -9.999 -99.9 -99.99 -9.99

Revised: 10/15/2013
NOAA / National Ocean Service
Web site owner: Center for Operational Oceanographic Products and Services